createdAt,value
2023-03-15T00:00:52.089Z,1.10
2023-03-15T00:03:18.736Z,1.00
2023-03-15T00:05:47.466Z,1.00
2023-03-15T00:08:15.286Z,1.00
2023-03-15T00:10:43.066Z,1.10
2023-03-15T00:13:09.925Z,1.00
2023-03-15T00:15:37.333Z,1.00
2023-03-15T00:18:04.529Z,1.10
2023-03-15T00:20:31.309Z,1.10
2023-03-15T00:22:57.962Z,1.10
2023-03-15T00:25:24.537Z,1.10
2023-03-15T00:27:51.131Z,1.10
2023-03-15T00:30:17.788Z,1.10
2023-03-15T00:32:44.422Z,1.10
2023-03-15T00:35:12.839Z,1.10
2023-03-15T00:37:39.575Z,1.10
2023-03-15T00:40:07.571Z,1.10
2023-03-15T00:42:34.246Z,1.10
2023-03-15T00:45:00.916Z,1.20
2023-03-15T00:47:27.503Z,1.20
2023-03-15T00:49:54.600Z,1.20
2023-03-15T00:52:22.412Z,1.20
2023-03-15T00:54:55.812Z,1.30
2023-03-15T00:57:22.654Z,1.30
2023-03-15T00:59:49.298Z,1.50
2023-03-15T01:02:15.893Z,1.50
2023-03-15T01:04:42.818Z,1.60
2023-03-15T01:07:09.605Z,1.60
2023-03-15T01:09:37.676Z,1.70
2023-03-15T01:12:05.443Z,1.70
2023-03-15T01:14:32.112Z,1.70
2023-03-15T01:16:58.745Z,1.80
2023-03-15T01:19:25.392Z,1.80
2023-03-15T01:21:53.166Z,1.80
2023-03-15T01:24:20.269Z,1.90
2023-03-15T01:26:48.712Z,1.90
2023-03-15T01:29:17.735Z,1.90
2023-03-15T01:31:44.562Z,2.00
2023-03-15T01:34:11.237Z,2.00
2023-03-15T01:36:37.998Z,1.90
2023-03-15T01:39:04.964Z,1.80
2023-03-15T01:41:40.325Z,1.80
2023-03-15T01:44:12.311Z,1.70
2023-03-15T01:46:39.026Z,1.50
2023-03-15T01:49:17.655Z,1.40
2023-03-15T01:51:50.940Z,1.20
2023-03-15T01:54:36.896Z,1.00
2023-03-15T01:57:23.741Z,0.90
2023-03-15T02:00:07.029Z,0.90
2023-03-15T02:02:47.042Z,0.80
2023-03-15T02:05:23.348Z,0.80
2023-03-15T02:07:51.010Z,0.70
2023-03-15T02:10:27.204Z,0.70
2023-03-15T02:12:56.136Z,0.70
2023-03-15T02:15:23.643Z,0.70
2023-03-15T02:17:50.470Z,0.70
2023-03-15T02:20:27.589Z,0.70
2023-03-15T02:23:00.542Z,0.70
2023-03-15T02:25:54.686Z,0.70
2023-03-15T02:28:22.221Z,0.70
2023-03-15T02:30:49.986Z,0.70
2023-03-15T02:33:25.075Z,0.70
2023-03-15T02:35:54.039Z,0.60
2023-03-15T02:38:22.473Z,0.60
2023-03-15T02:40:51.537Z,0.60
2023-03-15T02:43:22.383Z,0.70
2023-03-15T02:45:50.048Z,0.70
2023-03-15T02:48:17.976Z,0.80
2023-03-15T02:50:44.648Z,0.80
2023-03-15T02:53:12.189Z,0.80
2023-03-15T02:55:39.138Z,0.90
2023-03-15T02:58:06.381Z,0.80
2023-03-15T03:00:33.361Z,0.80
2023-03-15T03:02:59.937Z,0.80
2023-03-15T03:05:27.046Z,0.80
2023-03-15T03:07:53.908Z,0.80
2023-03-15T03:10:21.167Z,0.80
2023-03-15T03:12:53.460Z,0.90
2023-03-15T03:15:25.888Z,0.90
2023-03-15T03:17:54.377Z,0.90
2023-03-15T03:20:23.240Z,0.90
2023-03-15T03:22:49.899Z,0.80
2023-03-15T03:25:17.977Z,0.80
2023-03-15T03:27:46.780Z,0.80
2023-03-15T03:30:14.831Z,0.90
2023-03-15T03:32:47.713Z,0.90
2023-03-15T03:35:16.113Z,1.00
2023-03-15T03:37:43.328Z,1.00
2023-03-15T03:40:17.645Z,0.90
2023-03-15T03:42:44.850Z,1.00
2023-03-15T03:45:17.664Z,1.00
2023-03-15T03:47:46.433Z,1.00
2023-03-15T03:50:13.035Z,0.90
2023-03-15T03:52:43.684Z,0.90
2023-03-15T03:55:14.885Z,0.90
2023-03-15T03:57:43.610Z,0.90
2023-03-15T04:00:15.799Z,0.90
2023-03-15T04:02:43.225Z,0.90
2023-03-15T04:05:12.273Z,0.90
2023-03-15T04:07:39.526Z,0.90
2023-03-15T04:10:07.690Z,0.90
2023-03-15T04:12:35.296Z,0.90
2023-03-15T04:15:02.173Z,0.90
2023-03-15T04:17:32.393Z,0.90
2023-03-15T04:20:01.727Z,0.90
2023-03-15T04:22:29.771Z,0.90
2023-03-15T04:25:02.650Z,0.90
2023-03-15T04:27:40.662Z,0.90
2023-03-15T04:30:19.040Z,0.90
2023-03-15T04:32:58.905Z,1.00
2023-03-15T04:35:43.625Z,1.00
2023-03-15T04:38:35.309Z,1.00
2023-03-15T04:41:21.506Z,1.00
2023-03-15T04:44:08.789Z,0.90
2023-03-15T04:46:38.359Z,1.00
2023-03-15T04:49:18.681Z,1.00
2023-03-15T04:51:55.698Z,1.00
2023-03-15T04:54:46.483Z,1.00
2023-03-15T04:57:39.933Z,1.00
2023-03-15T05:00:15.149Z,1.00
2023-03-15T05:03:01.662Z,1.00
2023-03-15T05:05:48.580Z,1.10
2023-03-15T05:08:37.284Z,1.10
2023-03-15T05:11:13.072Z,1.00
2023-03-15T05:13:58.363Z,1.00
2023-03-15T05:16:55.852Z,1.00
2023-03-15T05:19:42.758Z,1.00
2023-03-15T05:22:28.180Z,1.00
2023-03-15T05:25:17.384Z,1.00
2023-03-15T05:28:05.474Z,1.00
2023-03-15T05:30:51.993Z,1.00
2023-03-15T05:33:46.834Z,1.00
2023-03-15T05:36:36.344Z,1.00
2023-03-15T05:39:34.516Z,1.10
2023-03-15T05:42:25.997Z,1.00
2023-03-15T05:45:00.116Z,1.10
2023-03-15T05:47:38.939Z,1.00
2023-03-15T05:50:23.727Z,1.00
2023-03-15T05:53:08.389Z,0.90
2023-03-15T05:55:44.742Z,0.90
2023-03-15T05:58:36.236Z,0.80
2023-03-15T06:01:24.164Z,0.80
2023-03-15T06:04:07.078Z,0.90
2023-03-15T06:06:35.021Z,0.90
2023-03-15T06:09:04.502Z,0.90
2023-03-15T06:11:31.246Z,0.90
2023-03-15T06:13:59.447Z,0.90
2023-03-15T06:16:41.259Z,0.90
2023-03-15T06:19:08.371Z,0.90
2023-03-15T06:21:35.238Z,0.80
2023-03-15T06:24:06.456Z,0.90
2023-03-15T06:26:34.533Z,0.80
2023-03-15T06:29:03.531Z,0.80
2023-03-15T06:31:30.310Z,0.90
2023-03-15T06:34:02.593Z,1.00
2023-03-15T06:36:31.290Z,1.10
2023-03-15T06:38:58.110Z,1.10
2023-03-15T06:41:24.788Z,1.00
2023-03-15T06:43:56.680Z,1.10
2023-03-15T06:46:23.378Z,1.00
2023-03-15T06:48:49.990Z,1.00
2023-03-15T06:51:17.061Z,1.10
2023-03-15T06:53:43.760Z,1.20
2023-03-15T06:56:10.780Z,1.20
2023-03-15T06:58:37.484Z,1.30
2023-03-15T07:01:04.708Z,1.20
2023-03-15T07:03:31.542Z,1.20
2023-03-15T07:05:58.335Z,1.20
2023-03-15T07:08:25.884Z,1.30
2023-03-15T07:10:52.612Z,1.30
2023-03-15T07:13:19.976Z,1.30
2023-03-15T07:15:50.900Z,1.30
2023-03-15T07:18:17.824Z,1.30
2023-03-15T07:20:44.468Z,1.30
2023-03-15T07:23:11.212Z,1.30
2023-03-15T07:25:54.129Z,1.20
2023-03-15T07:28:22.751Z,1.30
2023-03-15T07:30:57.592Z,1.40
2023-03-15T07:33:25.382Z,1.40
2023-03-15T07:35:55.872Z,1.50
2023-03-15T07:38:25.093Z,1.50
2023-03-15T07:40:52.123Z,1.60
2023-03-15T07:43:19.416Z,1.70
2023-03-15T07:45:49.981Z,1.70
2023-03-15T07:48:16.874Z,1.80
2023-03-15T07:50:43.598Z,1.90
2023-03-15T07:53:10.250Z,2.00
2023-03-15T07:55:37.009Z,2.00
2023-03-15T07:58:04.860Z,2.00
2023-03-15T08:00:32.104Z,1.80
2023-03-15T08:02:59.370Z,1.70
2023-03-15T08:05:28.852Z,1.70
2023-03-15T08:07:56.515Z,1.80
2023-03-15T08:10:23.390Z,1.90
2023-03-15T08:12:50.123Z,1.90
2023-03-15T08:15:16.959Z,1.80
2023-03-15T08:17:44.040Z,1.90
2023-03-15T08:20:11.577Z,2.00
2023-03-15T08:22:39.016Z,2.10
2023-03-15T08:25:06.510Z,2.00
2023-03-15T08:27:33.232Z,1.90
2023-03-15T08:29:59.937Z,2.10
2023-03-15T08:32:26.796Z,2.20
2023-03-15T08:34:53.497Z,2.30
2023-03-15T08:37:20.940Z,2.40
2023-03-15T08:39:47.562Z,2.40
2023-03-15T08:42:14.192Z,2.40
2023-03-15T08:44:40.926Z,2.50
2023-03-15T08:47:07.778Z,2.60
2023-03-15T08:49:35.923Z,2.60
2023-03-15T08:52:02.812Z,2.60
2023-03-15T08:54:29.422Z,2.70
2023-03-15T08:56:56.041Z,3.10
2023-03-15T08:59:31.690Z,3.50
2023-03-15T09:02:00.450Z,3.60
2023-03-15T09:04:27.799Z,3.40
2023-03-15T09:06:54.942Z,3.30
2023-03-15T09:09:22.145Z,3.40
2023-03-15T09:11:48.934Z,3.30
2023-03-15T09:14:15.977Z,3.40
2023-03-15T09:16:42.740Z,3.20
2023-03-15T09:19:09.777Z,3.20
2023-03-15T09:21:36.567Z,3.20
2023-03-15T09:24:03.489Z,3.20
2023-03-15T09:26:30.528Z,3.00
2023-03-15T09:28:57.197Z,3.00
2023-03-15T09:31:24.789Z,3.10
2023-03-15T09:33:51.553Z,3.00
2023-03-15T09:36:18.233Z,3.10
2023-03-15T09:38:44.896Z,3.00
2023-03-15T09:41:20.955Z,3.00
2023-03-15T09:43:59.067Z,3.00
2023-03-15T09:46:30.017Z,3.10
2023-03-15T09:49:34.323Z,3.20
2023-03-15T09:52:09.743Z,3.50
2023-03-15T09:54:57.371Z,3.70
2023-03-15T09:58:03.792Z,3.60
2023-03-15T10:00:38.248Z,3.50
2023-03-15T10:03:09.705Z,3.30
2023-03-15T10:05:41.608Z,3.00
2023-03-15T10:08:19.068Z,2.90
2023-03-15T10:11:08.620Z,3.10
2023-03-15T10:13:38.687Z,3.60
2023-03-15T10:16:20.439Z,3.90
2023-03-15T10:18:56.002Z,4.00
2023-03-15T10:21:31.569Z,3.90
2023-03-15T10:23:59.546Z,3.80
2023-03-15T10:26:32.679Z,4.20
2023-03-15T10:29:02.304Z,4.50
2023-03-15T10:31:44.038Z,4.60
2023-03-15T10:34:12.830Z,4.90
2023-03-15T10:36:49.747Z,5.20
2023-03-15T10:39:16.803Z,5.40
2023-03-15T10:41:46.361Z,5.20
2023-03-15T10:44:16.685Z,5.00
2023-03-15T10:47:04.671Z,4.70
2023-03-15T10:49:39.016Z,5.00
2023-03-15T10:52:06.148Z,5.20
2023-03-15T10:54:34.755Z,5.60
2023-03-15T10:57:12.152Z,5.70
2023-03-15T11:00:17.208Z,5.70
2023-03-15T11:02:52.374Z,5.60
2023-03-15T11:05:20.016Z,5.40
2023-03-15T11:07:58.816Z,5.10
2023-03-15T11:10:28.983Z,4.80
2023-03-15T11:13:13.739Z,4.70
2023-03-15T11:15:55.880Z,5.00
2023-03-15T11:18:30.833Z,5.10
2023-03-15T11:20:58.007Z,5.50
2023-03-15T11:23:28.951Z,5.90
2023-03-15T11:25:56.454Z,6.10
2023-03-15T11:28:27.553Z,6.00
2023-03-15T11:30:55.586Z,5.60
2023-03-15T11:33:33.917Z,5.20
2023-03-15T11:36:05.149Z,5.20
2023-03-15T11:38:41.872Z,5.70
2023-03-15T11:41:29.728Z,6.00
2023-03-15T11:44:27.563Z,6.50
2023-03-15T11:47:08.041Z,6.80
2023-03-15T11:49:43.671Z,6.90
2023-03-15T11:52:10.814Z,6.60
2023-03-15T11:54:37.923Z,6.30
2023-03-15T11:57:09.949Z,6.00
2023-03-15T11:59:40.384Z,5.70
2023-03-15T12:02:10.262Z,5.70
2023-03-15T12:04:40.150Z,5.70
2023-03-15T12:07:31.287Z,5.40
2023-03-15T12:10:19.574Z,5.30
2023-03-15T12:12:56.401Z,5.30
2023-03-15T12:15:23.022Z,5.60
2023-03-15T12:17:58.962Z,5.90
2023-03-15T12:20:39.032Z,5.80
2023-03-15T12:23:17.997Z,5.70
2023-03-15T12:25:55.790Z,5.50
2023-03-15T12:28:28.586Z,5.60
2023-03-15T12:30:59.342Z,5.90
2023-03-15T12:33:28.871Z,6.50
2023-03-15T12:36:01.350Z,7.10
2023-03-15T12:38:36.572Z,6.90
2023-03-15T12:41:08.024Z,6.60
2023-03-15T12:43:45.006Z,6.40
2023-03-15T12:46:36.743Z,6.20
2023-03-15T12:49:24.630Z,6.30
2023-03-15T12:52:03.989Z,6.30
2023-03-15T12:54:48.893Z,6.10
2023-03-15T12:57:37.492Z,6.00
2023-03-15T13:00:15.900Z,5.90
2023-03-15T13:02:49.430Z,5.70
2023-03-15T13:05:20.959Z,5.40
2023-03-15T13:07:52.260Z,5.40
2023-03-15T13:10:46.870Z,5.80
2023-03-15T13:13:38.221Z,6.20
2023-03-15T13:16:43.512Z,6.50
2023-03-15T13:19:42.455Z,6.70
2023-03-15T13:22:14.882Z,6.80
2023-03-15T13:24:59.639Z,7.10
2023-03-15T13:27:41.471Z,7.20
2023-03-15T13:30:28.371Z,7.40
2023-03-15T13:33:20.912Z,7.40
2023-03-15T13:36:00.212Z,7.30
2023-03-15T13:38:46.334Z,7.50
2023-03-15T13:41:24.125Z,7.60
2023-03-15T13:43:52.933Z,7.80
2023-03-15T13:46:25.051Z,7.70
2023-03-15T13:48:53.632Z,7.70
2023-03-15T13:51:25.189Z,7.50
2023-03-15T13:54:03.172Z,7.50
2023-03-15T13:56:46.831Z,7.20
2023-03-15T13:59:15.660Z,7.40
2023-03-15T14:01:42.977Z,7.80
2023-03-15T14:04:17.774Z,7.80
2023-03-15T14:06:45.683Z,7.40
2023-03-15T14:09:25.848Z,7.30
2023-03-15T14:12:07.034Z,7.50
2023-03-15T14:14:38.557Z,7.80
2023-03-15T14:17:20.626Z,8.00
2023-03-15T14:19:54.816Z,8.00
2023-03-15T14:22:21.617Z,8.00
2023-03-15T14:24:51.003Z,7.90
2023-03-15T14:27:25.042Z,7.90
2023-03-15T14:29:54.314Z,8.00
2023-03-15T14:32:27.350Z,7.90
2023-03-15T14:35:02.239Z,7.80
2023-03-15T14:37:41.301Z,7.50
2023-03-15T14:40:30.313Z,7.20
2023-03-15T14:42:56.968Z,6.80
2023-03-15T14:45:23.842Z,6.40
2023-03-15T14:47:58.064Z,6.30
2023-03-15T14:50:36.983Z,6.20
2023-03-15T14:53:04.916Z,6.20
2023-03-15T14:55:35.011Z,6.00
2023-03-15T14:58:11.416Z,6.00
2023-03-15T15:00:38.439Z,5.90
2023-03-15T15:03:13.621Z,5.80
2023-03-15T15:05:41.372Z,5.60
2023-03-15T15:08:13.097Z,5.40
2023-03-15T15:10:41.326Z,5.40
2023-03-15T15:13:22.897Z,5.40
2023-03-15T15:15:55.596Z,5.10
2023-03-15T15:18:25.654Z,4.60
2023-03-15T15:20:55.631Z,4.30
2023-03-15T15:23:26.676Z,4.10
2023-03-15T15:25:57.839Z,3.70
2023-03-15T15:28:34.648Z,3.40
2023-03-15T15:31:04.208Z,3.20
2023-03-15T15:33:31.526Z,3.20
2023-03-15T15:35:58.196Z,3.10
2023-03-15T15:38:32.892Z,3.00
2023-03-15T15:40:59.754Z,2.90
2023-03-15T15:43:26.581Z,2.90
2023-03-15T15:45:53.283Z,3.10
2023-03-15T15:48:20.346Z,3.10
2023-03-15T15:50:47.057Z,3.30
2023-03-15T15:53:17.927Z,3.40
2023-03-15T15:55:45.665Z,3.40
2023-03-15T15:58:13.284Z,3.40
2023-03-15T16:00:40.000Z,3.40
2023-03-15T16:03:16.870Z,3.60
2023-03-15T16:05:43.967Z,3.60
2023-03-15T16:08:22.424Z,3.60
2023-03-15T16:10:49.230Z,3.60
2023-03-15T16:13:16.125Z,3.60
2023-03-15T16:15:43.004Z,3.50
2023-03-15T16:18:11.408Z,3.50
2023-03-15T16:20:40.527Z,3.70
2023-03-15T16:23:13.162Z,3.80
2023-03-15T16:25:42.109Z,4.00
2023-03-15T16:28:11.184Z,4.10
2023-03-15T16:30:37.907Z,4.00
2023-03-15T16:33:14.238Z,4.00
2023-03-15T16:35:41.020Z,4.00
2023-03-15T16:38:14.586Z,4.10
2023-03-15T16:40:45.174Z,4.00
2023-03-15T16:43:13.619Z,4.00
2023-03-15T16:45:40.652Z,3.90
2023-03-15T16:48:07.474Z,4.00
2023-03-15T16:50:35.404Z,4.00
2023-03-15T16:53:05.252Z,4.00
2023-03-15T16:55:35.149Z,4.00
2023-03-15T16:58:04.268Z,3.90
2023-03-15T17:00:31.587Z,3.90
2023-03-15T17:03:01.452Z,3.90
2023-03-15T17:05:28.455Z,3.90
2023-03-15T17:07:55.775Z,3.80
2023-03-15T17:10:29.023Z,3.70
2023-03-15T17:12:57.327Z,3.60
2023-03-15T17:15:25.724Z,3.50
2023-03-15T17:17:53.645Z,3.50
2023-03-15T17:20:28.246Z,3.50
2023-03-15T17:23:04.360Z,3.40
2023-03-15T17:25:32.368Z,3.20
2023-03-15T17:28:00.140Z,3.10
2023-03-15T17:30:32.135Z,3.00
2023-03-15T17:32:59.547Z,2.90
2023-03-15T17:35:33.870Z,2.70
2023-03-15T17:38:02.626Z,2.60
2023-03-15T17:40:31.384Z,2.50
2023-03-15T17:43:00.708Z,2.50
2023-03-15T17:45:32.943Z,2.40
2023-03-15T17:48:00.951Z,2.40
2023-03-15T17:50:30.332Z,2.20
2023-03-15T17:53:00.525Z,2.10
2023-03-15T17:55:29.006Z,1.90
2023-03-15T17:57:55.948Z,1.90
2023-03-15T18:00:24.738Z,1.80
2023-03-15T18:02:56.352Z,1.60
2023-03-15T18:05:25.575Z,1.40
2023-03-15T18:08:00.476Z,1.40
2023-03-15T18:10:34.536Z,1.40
2023-03-15T18:13:01.297Z,1.40
2023-03-15T18:15:28.042Z,1.40
2023-03-15T18:17:54.695Z,1.20
2023-03-15T18:20:23.610Z,1.10
2023-03-15T18:22:50.600Z,1.00
2023-03-15T18:25:24.943Z,1.10
2023-03-15T18:27:52.025Z,0.90
2023-03-15T18:30:21.808Z,0.70
2023-03-15T18:32:49.569Z,0.60
2023-03-15T18:35:23.626Z,0.60
2023-03-15T18:37:50.634Z,0.40
2023-03-15T18:40:19.604Z,0.50
2023-03-15T18:42:46.233Z,0.30
2023-03-15T18:45:28.540Z,0.30
2023-03-15T18:47:55.621Z,0.30
2023-03-15T18:50:22.937Z,0.10
2023-03-15T18:52:50.355Z,0.20
2023-03-15T18:55:19.214Z,0.10
2023-03-15T18:57:46.352Z,0.00
2023-03-15T19:00:16.801Z,-0.10
2023-03-15T19:02:46.657Z,0.00
2023-03-15T19:05:14.297Z,-0.10
2023-03-15T19:07:41.750Z,-0.30
2023-03-15T19:10:11.715Z,-0.20
2023-03-15T19:12:39.710Z,-0.30
2023-03-15T19:15:10.506Z,-0.50
2023-03-15T19:17:38.725Z,-0.50
2023-03-15T19:20:07.593Z,-0.60
2023-03-15T19:22:34.987Z,-0.60
2023-03-15T19:25:01.925Z,-0.50
2023-03-15T19:27:28.789Z,-0.70
2023-03-15T19:29:55.542Z,-0.70
2023-03-15T19:32:22.420Z,-0.70
2023-03-15T19:34:49.163Z,-0.70
2023-03-15T19:37:15.837Z,-0.80
2023-03-15T19:39:42.513Z,-0.80
2023-03-15T19:42:09.239Z,-0.90
2023-03-15T19:44:36.043Z,-0.80
2023-03-15T19:47:02.767Z,-0.90
2023-03-15T19:49:29.461Z,-0.90
2023-03-15T19:51:56.118Z,-0.90
2023-03-15T19:54:22.780Z,-0.80
2023-03-15T19:56:49.390Z,-0.70
2023-03-15T19:59:16.052Z,-0.80
2023-03-15T20:01:42.770Z,-0.70
2023-03-15T20:04:09.510Z,-0.90
2023-03-15T20:06:36.298Z,-1.00
2023-03-15T20:09:03.760Z,-1.00
2023-03-15T20:11:30.406Z,-1.10
2023-03-15T20:13:57.076Z,-1.10
2023-03-15T20:16:23.906Z,-1.20
2023-03-15T20:18:55.572Z,-1.20
2023-03-15T20:21:22.424Z,-1.30
2023-03-15T20:23:49.405Z,-1.30
2023-03-15T20:26:17.688Z,-1.30
2023-03-15T20:28:44.786Z,-1.30
2023-03-15T20:31:17.206Z,-1.50
2023-03-15T20:33:47.131Z,-1.50
2023-03-15T20:36:15.367Z,-1.50
2023-03-15T20:38:42.121Z,-1.40
2023-03-15T20:41:08.853Z,-1.40
2023-03-15T20:43:35.788Z,-1.50
2023-03-15T20:46:04.007Z,-1.60
2023-03-15T20:48:32.175Z,-1.40
2023-03-15T20:50:58.972Z,-1.40
2023-03-15T20:53:26.137Z,-1.40
2023-03-15T20:55:52.805Z,-1.40
2023-03-15T20:58:19.470Z,-1.30
2023-03-15T21:00:46.162Z,-1.40
2023-03-15T21:03:14.740Z,-1.50
2023-03-15T21:05:43.349Z,-1.50
2023-03-15T21:08:10.422Z,-1.60
2023-03-15T21:10:38.027Z,-1.70
2023-03-15T21:13:09.523Z,-1.70
2023-03-15T21:15:45.720Z,-1.60
2023-03-15T21:18:14.669Z,-1.60
2023-03-15T21:20:41.518Z,-1.80
2023-03-15T21:23:08.983Z,-1.70
2023-03-15T21:25:36.414Z,-1.70
2023-03-15T21:28:04.164Z,-1.80
2023-03-15T21:30:31.110Z,-1.90
2023-03-15T21:32:58.176Z,-1.90
2023-03-15T21:35:25.437Z,-2.00
2023-03-15T21:37:52.159Z,-1.90
2023-03-15T21:40:18.865Z,-1.70
2023-03-15T21:42:47.514Z,-1.60
2023-03-15T21:45:14.386Z,-1.80
2023-03-15T21:47:41.392Z,-1.80
2023-03-15T21:50:09.532Z,-2.00
2023-03-15T21:52:36.129Z,-2.00
2023-03-15T21:55:03.270Z,-2.00
2023-03-15T21:57:29.915Z,-2.00
2023-03-15T21:59:56.542Z,-2.00
2023-03-15T22:02:23.147Z,-2.10
2023-03-15T22:04:49.919Z,-2.10
2023-03-15T22:07:16.671Z,-2.00
2023-03-15T22:09:43.413Z,-2.10
2023-03-15T22:12:10.342Z,-2.20
2023-03-15T22:14:37.201Z,-2.20
2023-03-15T22:17:04.524Z,-2.20
2023-03-15T22:19:32.081Z,-2.30
2023-03-15T22:21:58.868Z,-2.30
2023-03-15T22:24:25.474Z,-2.20
2023-03-15T22:26:53.001Z,-2.30
2023-03-15T22:29:19.757Z,-2.30
2023-03-15T22:31:46.393Z,-2.40
2023-03-15T22:34:13.164Z,-2.40
2023-03-15T22:36:39.887Z,-2.40
2023-03-15T22:39:07.486Z,-2.20
2023-03-15T22:41:34.248Z,-2.10
2023-03-15T22:44:01.027Z,-2.10
2023-03-15T22:46:28.379Z,-2.00
2023-03-15T22:48:55.247Z,-1.90
2023-03-15T22:51:21.935Z,-1.90
2023-03-15T22:53:48.583Z,-2.10
2023-03-15T22:56:15.351Z,-2.20
2023-03-15T22:58:42.406Z,-2.30
2023-03-15T23:01:10.080Z,-2.20
2023-03-15T23:03:37.058Z,-2.20
2023-03-15T23:06:04.001Z,-2.20
2023-03-15T23:08:30.827Z,-2.30
2023-03-15T23:10:58.478Z,-2.40
2023-03-15T23:13:25.211Z,-2.40
2023-03-15T23:15:51.871Z,-2.50
2023-03-15T23:18:18.508Z,-2.40
2023-03-15T23:20:45.225Z,-2.40
2023-03-15T23:23:11.835Z,-2.30
2023-03-15T23:25:39.635Z,-2.10
2023-03-15T23:28:06.718Z,-2.20
2023-03-15T23:30:35.748Z,-2.20
2023-03-15T23:33:03.596Z,-2.00
2023-03-15T23:35:31.330Z,-2.00
2023-03-15T23:37:58.134Z,-2.00
2023-03-15T23:40:25.681Z,-2.10
2023-03-15T23:42:58.518Z,-2.20
2023-03-15T23:45:27.082Z,-2.30
2023-03-15T23:47:53.788Z,-2.10
2023-03-15T23:50:20.697Z,-2.20
2023-03-15T23:52:47.281Z,-1.90
2023-03-15T23:55:13.941Z,-1.80
2023-03-15T23:57:41.269Z,-1.60
